Time;durP1;ratioP1;P1;durP2;ratioP2;P2;SDS_P1;SDS_P2;PMS_P1;PMS_P2;Temp;Humidity;BMP_temperature;BMP_pressure;BME280_temperature;BME280_humidity;BME280_pressure;Samples;Min_cycle;Max_cycle;Signal;HPM_P1;HPM_P2
2022/03/05 00:01:35;;;;;;;13.13;7.97;;;;;;;;;;5055126;28;20215;-75
2022/03/05 00:04:04;;;;;;;12.33;8.27;;;;;;;;;;5049117;28;20721;-75
2022/03/05 00:06:32;;;;;;;11.73;7.70;;;;;;;;;;5035302;28;20229;-75
2022/03/05 00:09:01;;;;;;;10.77;8.10;;;;;;;;;;5034807;28;20259;-75
2022/03/05 00:11:29;;;;;;;12.13;8.13;;;;;;;;;;5053602;28;20202;-75
2022/03/05 00:13:59;;;;;;;10.47;7.50;;;;;;;;;;5047323;28;20192;-75
2022/03/05 00:16:28;;;;;;;11.53;8.07;;;;;;;;;;5034807;28;20703;-75
2022/03/05 00:18:56;;;;;;;12.87;7.73;;;;;;;;;;5034935;28;20195;-75
2022/03/05 00:21:25;;;;;;;14.73;8.47;;;;;;;;;;5035003;28;20281;-75
2022/03/05 00:23:53;;;;;;;12.47;7.90;;;;;;;;;;5034620;28;20286;-75
2022/03/05 00:26:22;;;;;;;13.13;8.67;;;;;;;;;;5050360;28;20246;-75
2022/03/05 00:28:50;;;;;;;12.23;8.20;;;;;;;;;;5054689;28;20227;-75
2022/03/05 00:31:21;;;;;;;12.83;7.97;;;;;;;;;;5054879;28;20277;-75
2022/03/05 00:33:49;;;;;;;13.40;8.03;;;;;;;;;;5047890;28;20563;-75
2022/03/05 00:36:18;;;;;;;11.70;8.20;;;;;;;;;;5043580;28;20270;-75
2022/03/05 00:38:48;;;;;;;14.07;8.83;;;;;;;;;;5038297;28;20253;-75
2022/03/05 00:41:16;;;;;;;12.77;8.33;;;;;;;;;;5054393;28;20191;-75
2022/03/05 00:43:45;;;;;;;11.30;8.07;;;;;;;;;;5053966;28;20220;-75
2022/03/05 00:46:13;;;;;;;13.20;8.33;;;;;;;;;;5048846;28;20212;-75
2022/03/05 00:48:43;;;;;;;13.77;8.87;;;;;;;;;;5035066;28;20232;-75
2022/03/05 00:51:11;;;;;;;12.23;8.37;;;;;;;;;;5034362;28;20261;-75
2022/03/05 00:53:40;;;;;;;11.97;8.50;;;;;;;;;;5033670;28;20208;-75
2022/03/05 00:56:09;;;;;;;13.50;8.80;;;;;;;;;;5041761;28;20261;-75
2022/03/05 00:58:37;;;;;;;15.37;9.10;;;;;;;;;;5053441;28;20207;-75
2022/03/05 01:01:05;;;;;;;14.43;9.07;;;;;;;;;;5054006;28;20282;-75
2022/03/05 01:03:34;;;;;;;13.57;8.63;;;;;;;;;;5051712;28;20562;-75
2022/03/05 01:06:04;;;;;;;13.33;8.30;;;;;;;;;;5047387;28;20215;-75
2022/03/05 01:08:34;;;;;;;13.10;8.50;;;;;;;;;;5036335;28;20223;-75
2022/03/05 01:11:02;;;;;;;12.67;8.17;;;;;;;;;;5054207;28;20637;-75
2022/03/05 01:13:30;;;;;;;14.70;9.00;;;;;;;;;;5050698;28;20204;-75
2022/03/05 01:15:59;;;;;;;14.90;9.30;;;;;;;;;;5050834;28;20214;-75
2022/03/05 01:18:27;;;;;;;14.60;9.13;;;;;;;;;;5033640;28;20212;-75
2022/03/05 01:20:56;;;;;;;12.10;8.00;;;;;;;;;;5033741;28;20590;-75
2022/03/05 01:23:26;;;;;;;12.43;8.10;;;;;;;;;;5034830;28;20207;-75
2022/03/05 01:25:54;;;;;;;13.27;8.60;;;;;;;;;;5053272;28;20195;-75
2022/03/05 01:28:23;;;;;;;12.90;8.87;;;;;;;;;;5033575;28;20273;-75
2022/03/05 01:30:51;;;;;;;12.63;8.20;;;;;;;;;;5033321;28;20203;-75
2022/03/05 01:33:20;;;;;;;12.17;8.30;;;;;;;;;;5033926;28;20235;-75
2022/03/05 01:35:49;;;;;;;13.63;8.90;;;;;;;;;;5070929;28;20198;-75
2022/03/05 01:38:17;;;;;;;13.77;8.73;;;;;;;;;;5053439;28;20203;-75
2022/03/05 01:40:48;;;;;;;12.90;8.47;;;;;;;;;;5033254;28;20628;-75
2022/03/05 01:43:16;;;;;;;12.30;8.47;;;;;;;;;;5033347;28;20211;-75
2022/03/05 01:45:44;;;;;;;16.73;8.67;;;;;;;;;;5033069;28;20203;-75
2022/03/05 01:48:13;;;;;;;12.63;8.53;;;;;;;;;;5033500;28;20212;-75
2022/03/05 01:50:41;;;;;;;13.00;8.93;;;;;;;;;;5033398;28;20231;-75
2022/03/05 01:53:10;;;;;;;11.80;8.17;;;;;;;;;;5033907;28;20211;-75
2022/03/05 01:55:38;;;;;;;15.97;9.47;;;;;;;;;;5033204;28;20208;-75
2022/03/05 01:58:08;;;;;;;15.07;8.40;;;;;;;;;;5033183;28;20207;-75
2022/03/05 02:00:37;;;;;;;15.77;9.07;;;;;;;;;;5032780;28;20242;-75
2022/03/05 02:03:05;;;;;;;13.00;9.10;;;;;;;;;;5033270;28;20203;-75
2022/03/05 02:05:34;;;;;;;12.30;8.90;;;;;;;;;;5032576;28;20204;-75
2022/03/05 02:08:03;;;;;;;13.90;8.70;;;;;;;;;;5034452;28;20585;-75
2022/03/05 02:10:31;;;;;;;13.17;9.43;;;;;;;;;;5055558;28;20276;-75
2022/03/05 02:12:59;;;;;;;13.67;8.63;;;;;;;;;;5057352;28;20211;-75
2022/03/05 02:15:30;;;;;;;14.13;8.53;;;;;;;;;;5044791;28;20218;-75
2022/03/05 02:17:58;;;;;;;14.97;8.67;;;;;;;;;;5037083;28;20228;-75
2022/03/05 02:20:30;;;;;;;13.53;9.07;;;;;;;;;;5056603;28;20286;-75
2022/03/05 02:22:59;;;;;;;13.33;8.17;;;;;;;;;;5057024;28;20245;-75
2022/03/05 02:25:27;;;;;;;12.50;8.13;;;;;;;;;;5043605;28;20211;-75
2022/03/05 02:27:57;;;;;;;14.23;8.83;;;;;;;;;;5037084;28;20220;-75
2022/03/05 02:30:25;;;;;;;14.23;9.20;;;;;;;;;;5037695;28;20706;-75
2022/03/05 02:32:53;;;;;;;15.87;9.20;;;;;;;;;;5040908;28;20567;-75
2022/03/05 02:35:22;;;;;;;14.90;9.00;;;;;;;;;;5044081;28;20195;-75
2022/03/05 02:37:52;;;;;;;13.70;8.87;;;;;;;;;;5037235;28;20231;-75
2022/03/05 02:40:20;;;;;;;12.40;9.00;;;;;;;;;;5036979;28;20200;-75
2022/03/05 02:42:49;;;;;;;12.53;8.70;;;;;;;;;;5037322;28;20207;-75
2022/03/05 02:45:17;;;;;;;14.47;9.30;;;;;;;;;;5036462;28;20200;-75
2022/03/05 02:47:45;;;;;;;14.13;9.23;;;;;;;;;;5055989;28;20230;-75
2022/03/05 02:50:14;;;;;;;14.60;9.30;;;;;;;;;;5056339;28;20251;-75
2022/03/05 02:52:42;;;;;;;13.53;8.90;;;;;;;;;;5048278;28;20203;-75
2022/03/05 02:55:12;;;;;;;16.67;9.53;;;;;;;;;;5038725;28;20207;-75
2022/03/05 02:57:40;;;;;;;11.07;8.80;;;;;;;;;;5036295;28;20647;-75
2022/03/05 03:00:09;;;;;;;13.37;8.87;;;;;;;;;;5036095;28;20203;-74
2022/03/05 03:02:38;;;;;;;12.23;8.77;;;;;;;;;;5049193;28;20674;-75
2022/03/05 03:05:07;;;;;;;14.17;9.13;;;;;;;;;;5035878;28;20234;-75
2022/03/05 03:07:35;;;;;;;13.77;9.27;;;;;;;;;;5036992;28;20551;-75
2022/03/05 03:10:04;;;;;;;15.73;9.43;;;;;;;;;;5051006;28;20227;-75
2022/03/05 03:12:34;;;;;;;16.10;9.97;;;;;;;;;;5056218;28;20221;-75
2022/03/05 03:15:07;;;;;;;15.47;9.10;;;;;;;;;;5066137;28;20194;-75
2022/03/05 03:17:40;;;;;;;14.30;9.60;;;;;;;;;;5047070;28;20228;-75
2022/03/05 03:20:09;;;;;;;15.17;10.10;;;;;;;;;;5036008;28;20211;-75
2022/03/05 03:22:38;;;;;;;15.10;9.93;;;;;;;;;;5036221;28;20341;-75
2022/03/05 03:25:07;;;;;;;16.63;9.77;;;;;;;;;;5049877;28;20207;-75
2022/03/05 03:27:36;;;;;;;15.23;9.57;;;;;;;;;;5055631;28;20223;-75
2022/03/05 03:30:05;;;;;;;15.77;9.63;;;;;;;;;;5054989;28;20579;-75
2022/03/05 03:32:34;;;;;;;15.53;10.63;;;;;;;;;;5051760;28;20203;-75
2022/03/05 03:35:03;;;;;;;16.63;9.77;;;;;;;;;;5042400;28;20204;-75
2022/03/05 03:37:32;;;;;;;18.00;9.97;;;;;;;;;;5035924;28;20266;-75
2022/03/05 03:40:02;;;;;;;16.10;10.17;;;;;;;;;;5050024;28;20702;-74
2022/03/05 03:42:30;;;;;;;17.97;10.60;;;;;;;;;;5055721;28;20203;-75
2022/03/05 03:45:00;;;;;;;17.47;10.37;;;;;;;;;;5053455;28;20229;-75
2022/03/05 03:47:28;;;;;;;18.77;11.83;;;;;;;;;;5075418;28;20705;-75
2022/03/05 03:49:57;;;;;;;18.47;11.27;;;;;;;;;;5075100;28;20630;-74
2022/03/05 03:52:25;;;;;;;18.73;11.93;;;;;;;;;;4712119;28;9999933;-75
2022/03/05 03:54:53;;;;;;;19.20;10.60;;;;;;;;;;5046542;28;20192;-75
2022/03/05 03:57:22;;;;;;;19.03;11.50;;;;;;;;;;5055540;28;20231;-75
2022/03/05 03:59:51;;;;;;;17.57;11.07;;;;;;;;;;5055097;28;20261;-75
2022/03/05 04:02:22;;;;;;;18.40;11.47;;;;;;;;;;5055415;28;20673;-75
2022/03/05 04:04:50;;;;;;;17.77;11.53;;;;;;;;;;5055397;28;20194;-75
2022/03/05 04:10:06;;;;;;;20.10;12.10;;;;;;;;;;5035062;28;20212;-75
2022/03/05 04:12:35;;;;;;;20.83;12.20;;;;;;;;;;5035279;28;20215;-75
2022/03/05 04:15:04;;;;;;;20.47;12.43;;;;;;;;;;5049248;28;20206;-75
2022/03/05 04:17:34;;;;;;;18.10;11.80;;;;;;;;;;5034724;28;20699;-75
2022/03/05 04:20:03;;;;;;;18.63;11.97;;;;;;;;;;5034809;28;20211;-75
2022/03/05 04:22:31;;;;;;;19.67;11.63;;;;;;;;;;5034927;28;20199;-75
2022/03/05 04:24:59;;;;;;;18.20;12.17;;;;;;;;;;5046489;28;20199;-75
2022/03/05 04:27:28;;;;;;;18.73;11.27;;;;;;;;;;5054659;28;20223;-75
2022/03/05 04:29:56;;;;;;;20.03;11.83;;;;;;;;;;5053430;28;20724;-75
2022/03/05 04:32:25;;;;;;;19.77;11.67;;;;;;;;;;5053784;28;20269;-75
2022/03/05 04:34:55;;;;;;;20.00;12.37;;;;;;;;;;5053160;28;20202;-76
2022/03/05 04:37:23;;;;;;;22.77;12.17;;;;;;;;;;5054560;28;20281;-75
2022/03/05 04:39:51;;;;;;;21.37;12.17;;;;;;;;;;5054902;28;20218;-77
2022/03/05 04:42:20;;;;;;;23.03;12.53;;;;;;;;;;5054709;28;20199;-75
2022/03/05 04:44:48;;;;;;;20.77;12.67;;;;;;;;;;5054004;28;20214;-75
2022/03/05 04:47:17;;;;;;;21.03;12.67;;;;;;;;;;5054174;28;20223;-75
2022/03/05 04:49:45;;;;;;;23.37;13.57;;;;;;;;;;5054426;28;20203;-76
2022/03/05 04:52:15;;;;;;;25.60;13.30;;;;;;;;;;5054005;28;20673;-76
2022/03/05 04:54:43;;;;;;;23.33;14.33;;;;;;;;;;5051926;28;20199;-75
2022/03/05 04:57:12;;;;;;;21.87;13.73;;;;;;;;;;5053990;28;20923;-76
2022/03/05 04:59:41;;;;;;;24.23;14.10;;;;;;;;;;5054308;28;20207;-76
2022/03/05 05:02:09;;;;;;;27.60;15.33;;;;;;;;;;5054288;28;20669;-77
2022/03/05 05:04:38;;;;;;;23.93;15.03;;;;;;;;;;5050732;28;20206;-77
2022/03/05 05:07:07;;;;;;;25.73;14.67;;;;;;;;;;5053996;28;20313;-77
2022/03/05 05:09:37;;;;;;;24.33;15.40;;;;;;;;;;5043131;28;20204;-75
2022/03/05 05:12:06;;;;;;;22.70;14.50;;;;;;;;;;5033925;28;20219;-77
2022/03/05 05:14:34;;;;;;;25.17;14.50;;;;;;;;;;5033991;28;20205;-78
2022/03/05 05:17:04;;;;;;;23.60;14.70;;;;;;;;;;5034256;28;20227;-77
2022/03/05 05:19:32;;;;;;;26.23;15.13;;;;;;;;;;5041924;28;20203;-77
2022/03/05 05:22:01;;;;;;;26.47;14.93;;;;;;;;;;5054439;28;20249;-76
2022/03/05 05:24:30;;;;;;;25.20;14.27;;;;;;;;;;5050988;28;20577;-77
2022/03/05 05:27:00;;;;;;;22.87;14.20;;;;;;;;;;5039896;28;20234;-77
2022/03/05 05:29:29;;;;;;;23.73;14.17;;;;;;;;;;5053792;28;20188;-77
2022/03/05 05:32:14;;;;;;;24.00;14.23;;;;;;;;;;5033677;28;20605;-76
2022/03/05 05:34:42;;;;;;;23.80;13.70;;;;;;;;;;5035732;28;20203;-77
2022/03/05 05:37:16;;;;;;;26.67;14.10;;;;;;;;;;5033757;28;20698;-77
2022/03/05 05:39:45;;;;;;;25.60;14.67;;;;;;;;;;5045776;28;20273;-79
2022/03/05 05:42:14;;;;;;;22.20;14.17;;;;;;;;;;5054105;28;20203;-77
2022/03/05 05:44:43;;;;;;;23.27;14.37;;;;;;;;;;5048354;28;20222;-77
2022/03/05 05:47:12;;;;;;;25.50;13.77;;;;;;;;;;5052075;28;20797;-76
2022/03/05 05:49:41;;;;;;;24.87;13.97;;;;;;;;;;5034933;28;20205;-78
2022/03/05 05:52:10;;;;;;;22.53;13.43;;;;;;;;;;5047856;28;20215;-78
2022/03/05 05:54:39;;;;;;;20.73;13.57;;;;;;;;;;5041308;28;20314;-77
2022/03/05 05:57:10;;;;;;;26.27;13.73;;;;;;;;;;5033701;28;20228;-77
2022/03/05 05:59:41;;;;;;;23.43;14.13;;;;;;;;;;5051126;28;20596;-77
2022/03/05 06:02:11;;;;;;;27.00;15.00;;;;;;;;;;5053474;28;20616;-77
2022/03/05 06:04:39;;;;;;;25.07;14.47;;;;;;;;;;5032626;28;20722;-77
2022/03/05 06:07:08;;;;;;;25.03;14.90;;;;;;;;;;5033317;28;20223;-77
2022/03/05 06:09:36;;;;;;;21.33;14.57;;;;;;;;;;5057201;28;20214;-78
2022/03/05 06:12:06;;;;;;;25.87;15.67;;;;;;;;;;5062149;28;20828;-76
2022/03/05 06:14:34;;;;;;;24.90;14.40;;;;;;;;;;5047254;28;20600;-76
2022/03/05 06:17:04;;;;;;;24.30;14.23;;;;;;;;;;5063244;28;20592;-78
2022/03/05 06:19:33;;;;;;;25.63;15.30;;;;;;;;;;5049036;28;20211;-76
2022/03/05 06:22:01;;;;;;;23.53;14.30;;;;;;;;;;5033659;28;20265;-77
2022/03/05 06:24:29;;;;;;;23.73;14.70;;;;;;;;;;5041791;28;20210;-78
2022/03/05 06:26:58;;;;;;;26.27;15.00;;;;;;;;;;5035775;28;20232;-78
2022/03/05 06:29:26;;;;;;;21.90;14.70;;;;;;;;;;5042452;28;20196;-80
2022/03/05 06:31:55;;;;;;;26.10;14.77;;;;;;;;;;5032936;28;20231;-77
2022/03/05 06:34:27;;;;;;;26.93;15.07;;;;;;;;;;5054796;28;20192;-76
2022/03/05 06:36:55;;;;;;;26.60;15.33;;;;;;;;;;5044205;28;20223;-77
2022/03/05 06:39:24;;;;;;;23.23;14.33;;;;;;;;;;5047224;28;20607;-78
2022/03/05 06:41:52;;;;;;;24.17;14.63;;;;;;;;;;5033033;28;20200;-77
2022/03/05 06:44:21;;;;;;;26.53;14.97;;;;;;;;;;5043792;28;20207;-77
2022/03/05 06:46:49;;;;;;;24.90;14.70;;;;;;;;;;5052627;28;20251;-76
2022/03/05 06:49:18;;;;;;;23.90;14.73;;;;;;;;;;5052781;28;20256;-78
2022/03/05 06:51:48;;;;;;;27.27;15.43;;;;;;;;;;5052845;28;20222;-75
2022/03/05 06:54:16;;;;;;;25.47;15.27;;;;;;;;;;5051341;28;20654;-78
2022/03/05 06:56:45;;;;;;;25.60;14.47;;;;;;;;;;5036232;28;20281;-76
2022/03/05 06:59:13;;;;;;;27.00;15.17;;;;;;;;;;5043173;28;20207;-77
2022/03/05 07:01:42;;;;;;;23.60;14.80;;;;;;;;;;5056763;28;20199;-78
2022/03/05 07:04:11;;;;;;;21.50;14.50;;;;;;;;;;5052153;28;20245;-81
2022/03/05 07:06:39;;;;;;;25.73;14.53;;;;;;;;;;5057196;28;20561;-76
2022/03/05 07:09:09;;;;;;;27.47;14.50;;;;;;;;;;5051382;28;20211;-75
2022/03/05 07:11:39;;;;;;;23.53;15.00;;;;;;;;;;5052386;28;20203;-77
2022/03/05 07:14:13;;;;;;;22.67;14.10;;;;;;;;;;5047359;28;20205;-76
2022/03/05 07:16:41;;;;;;;22.23;14.13;;;;;;;;;;5041678;28;20232;-76
2022/03/05 07:19:10;;;;;;;24.00;14.60;;;;;;;;;;5051209;28;20706;-76
2022/03/05 07:21:41;;;;;;;18.90;13.27;;;;;;;;;;5066981;28;20599;-77
2022/03/05 07:24:11;;;;;;;21.37;13.90;;;;;;;;;;5056693;28;20200;-77
2022/03/05 07:26:39;;;;;;;21.70;13.33;;;;;;;;;;5058203;28;20579;-77
2022/03/05 07:29:08;;;;;;;20.97;14.27;;;;;;;;;;5057800;28;20199;-75
2022/03/05 07:31:37;;;;;;;22.00;12.90;;;;;;;;;;5070307;28;20206;-78
2022/03/05 07:34:06;;;;;;;22.20;14.33;;;;;;;;;;5063941;28;20209;-77
2022/03/05 07:36:34;;;;;;;17.70;12.57;;;;;;;;;;5060386;28;20281;-76
2022/03/05 07:39:04;;;;;;;19.17;13.27;;;;;;;;;;5068168;28;20207;-76
2022/03/05 07:41:34;;;;;;;19.97;13.13;;;;;;;;;;5059896;28;20192;-75
2022/03/05 07:44:03;;;;;;;20.13;13.17;;;;;;;;;;5053853;28;20262;-76
2022/03/05 07:46:32;;;;;;;18.03;12.47;;;;;;;;;;5064445;28;20225;-76
2022/03/05 07:49:00;;;;;;;20.00;13.43;;;;;;;;;;5035522;28;20252;-76
2022/03/05 07:51:29;;;;;;;22.17;13.30;;;;;;;;;;5046668;28;20209;-76
2022/03/05 07:53:57;;;;;;;20.37;13.40;;;;;;;;;;5057760;28;20258;-77
2022/03/05 07:56:26;;;;;;;19.40;12.63;;;;;;;;;;5053347;28;20260;-76
2022/03/05 07:58:56;;;;;;;20.90;13.37;;;;;;;;;;5053199;28;20201;-79
2022/03/05 08:01:24;;;;;;;20.70;13.20;;;;;;;;;;5037843;28;20260;-77
2022/03/05 08:03:53;;;;;;;16.33;12.47;;;;;;;;;;5038744;28;20199;-79
2022/03/05 08:06:21;;;;;;;20.23;12.37;;;;;;;;;;5047028;28;20630;-77
2022/03/05 08:08:52;;;;;;;19.30;12.67;;;;;;;;;;5051343;28;20209;-76
2022/03/05 08:11:21;;;;;;;18.23;12.33;;;;;;;;;;5039353;28;20203;-76
2022/03/05 08:13:49;;;;;;;17.87;11.60;;;;;;;;;;5054456;28;20214;-77
2022/03/05 08:16:19;;;;;;;19.43;12.37;;;;;;;;;;5056340;28;20218;-76
2022/03/05 08:18:47;;;;;;;18.20;11.80;;;;;;;;;;5064490;28;20202;-79
2022/03/05 08:21:16;;;;;;;20.57;12.53;;;;;;;;;;5058762;28;20210;-78
2022/03/05 08:23:44;;;;;;;18.23;11.97;;;;;;;;;;5056641;28;20259;-77
2022/03/05 08:26:15;;;;;;;17.47;12.63;;;;;;;;;;5057368;28;20287;-78
2022/03/05 08:28:45;;;;;;;15.57;11.80;;;;;;;;;;5042003;28;20196;-77
2022/03/05 08:31:13;;;;;;;18.37;12.17;;;;;;;;;;5054813;28;20555;-78
2022/03/05 08:33:43;;;;;;;18.40;12.50;;;;;;;;;;5041709;28;20219;-77
2022/03/05 08:36:12;;;;;;;19.17;12.33;;;;;;;;;;5037129;28;20638;-76
2022/03/05 08:38:40;;;;;;;16.93;11.67;;;;;;;;;;5060101;28;20206;-78
2022/03/05 08:41:09;;;;;;;18.27;11.57;;;;;;;;;;5054195;28;20207;-77
2022/03/05 08:43:38;;;;;;;17.03;11.93;;;;;;;;;;5049453;28;20612;-77
2022/03/05 08:46:07;;;;;;;16.77;11.43;;;;;;;;;;5057950;28;20222;-76
2022/03/05 08:48:35;;;;;;;17.07;11.57;;;;;;;;;;5054736;28;20659;-78
2022/03/05 08:51:05;;;;;;;14.43;10.70;;;;;;;;;;5060027;28;20200;-76
2022/03/05 08:53:34;;;;;;;13.93;10.87;;;;;;;;;;5065498;28;20685;-77
2022/03/05 08:56:02;;;;;;;16.40;10.67;;;;;;;;;;5060397;28;20224;-78
2022/03/05 08:58:31;;;;;;;14.97;11.20;;;;;;;;;;5047390;28;20663;-76
2022/03/05 09:01:01;;;;;;;15.27;11.13;;;;;;;;;;5038915;28;20215;-77
2022/03/05 09:03:29;;;;;;;14.13;10.17;;;;;;;;;;5041237;28;20190;-77
2022/03/05 09:05:58;;;;;;;14.07;10.70;;;;;;;;;;5040238;28;20685;-77
2022/03/05 09:08:28;;;;;;;14.70;10.50;;;;;;;;;;5052456;28;20211;-76
2022/03/05 09:10:57;;;;;;;14.47;11.67;;;;;;;;;;5055903;28;20688;-76
2022/03/05 09:13:25;;;;;;;15.50;10.83;;;;;;;;;;5045578;28;20220;-78
2022/03/05 09:15:54;;;;;;;15.13;11.30;;;;;;;;;;5047199;28;20202;-77
2022/03/05 09:18:22;;;;;;;16.13;11.20;;;;;;;;;;5049009;28;20213;-75
2022/03/05 09:20:50;;;;;;;14.73;10.10;;;;;;;;;;5046405;28;20207;-75
2022/03/05 09:23:19;;;;;;;17.10;11.33;;;;;;;;;;5042989;28;20249;-77
2022/03/05 09:25:48;;;;;;;16.13;10.67;;;;;;;;;;5059567;28;20204;-76
2022/03/05 09:28:17;;;;;;;16.43;10.70;;;;;;;;;;5049333;28;20210;-78
2022/03/05 09:30:45;;;;;;;14.27;10.40;;;;;;;;;;5044311;28;20233;-76
2022/03/05 09:33:14;;;;;;;16.07;10.73;;;;;;;;;;5047306;28;20219;-76
2022/03/05 09:35:43;;;;;;;14.57;10.50;;;;;;;;;;5062414;28;20252;-76
2022/03/05 09:38:12;;;;;;;15.07;9.97;;;;;;;;;;5063170;28;20203;-76
2022/03/05 09:40:40;;;;;;;15.17;10.63;;;;;;;;;;5063338;28;20209;-76
2022/03/05 09:43:11;;;;;;;12.93;9.77;;;;;;;;;;5052593;28;20207;-76
2022/03/05 09:45:39;;;;;;;13.93;10.27;;;;;;;;;;5059718;28;20203;-75
2022/03/05 09:48:08;;;;;;;13.87;9.90;;;;;;;;;;5054981;28;20303;-76
2022/03/05 09:50:36;;;;;;;13.10;10.23;;;;;;;;;;5047673;28;20226;-76
2022/03/05 09:53:05;;;;;;;13.50;10.20;;;;;;;;;;4723691;28;9999788;-77
2022/03/05 09:55:33;;;;;;;14.73;10.20;;;;;;;;;;5062091;28;20636;-78
2022/03/05 09:58:02;;;;;;;14.20;10.00;;;;;;;;;;5055895;28;20226;-79
2022/03/05 10:00:31;;;;;;;12.30;9.50;;;;;;;;;;5059142;28;20195;-75
2022/03/05 10:03:00;;;;;;;12.80;9.73;;;;;;;;;;5052953;28;20302;-77
2022/03/05 10:05:29;;;;;;;13.73;9.80;;;;;;;;;;5056574;28;20212;-76
2022/03/05 10:08:09;;;;;;;14.80;10.47;;;;;;;;;;5062706;28;20682;-77
2022/03/05 10:10:46;;;;;;;14.87;10.30;;;;;;;;;;5065025;28;20219;-76
2022/03/05 10:13:18;;;;;;;13.63;9.60;;;;;;;;;;5061063;28;20480;-76
2022/03/05 10:15:49;;;;;;;13.10;10.20;;;;;;;;;;5045740;28;20200;-76
2022/03/05 10:18:18;;;;;;;15.50;10.80;;;;;;;;;;5063746;28;20206;-78
2022/03/05 10:20:48;;;;;;;14.13;10.53;;;;;;;;;;5066888;28;20225;-78
2022/03/05 10:23:16;;;;;;;14.93;10.47;;;;;;;;;;5075651;28;20733;-78
2022/03/05 10:25:46;;;;;;;15.10;11.20;;;;;;;;;;5066606;28;20195;-76
2022/03/05 10:28:15;;;;;;;15.37;10.80;;;;;;;;;;5064615;28;20202;-79
2022/03/05 10:30:44;;;;;;;13.63;10.03;;;;;;;;;;5068820;28;20266;-77
2022/03/05 10:33:25;;;;;;;13.47;11.03;;;;;;;;;;5077006;28;20311;-77
2022/03/05 10:35:54;;;;;;;14.17;10.43;;;;;;;;;;5072102;28;20252;-77
2022/03/05 10:38:24;;;;;;;14.80;10.80;;;;;;;;;;5061211;28;20206;-76
2022/03/05 10:40:56;;;;;;;13.90;10.70;;;;;;;;;;5064192;28;20668;-77
2022/03/05 10:43:25;;;;;;;14.90;10.70;;;;;;;;;;5049468;28;20535;-76
2022/03/05 10:45:54;;;;;;;14.80;11.50;;;;;;;;;;5045419;28;20218;-76
2022/03/05 10:48:24;;;;;;;14.57;11.00;;;;;;;;;;5044830;28;20199;-75
2022/03/05 10:50:56;;;;;;;13.63;10.50;;;;;;;;;;5048112;28;20200;-76
2022/03/05 10:53:44;;;;;;;12.53;10.10;;;;;;;;;;5051181;28;20217;-76
2022/03/05 10:56:29;;;;;;;13.87;10.57;;;;;;;;;;5043695;28;20218;-76
2022/03/05 10:59:08;;;;;;;13.57;10.73;;;;;;;;;;5048676;28;20253;-76
2022/03/05 11:01:38;;;;;;;13.87;10.77;;;;;;;;;;5061048;28;20210;-76
2022/03/05 11:04:08;;;;;;;15.63;10.43;;;;;;;;;;5057460;28;20207;-76
2022/03/05 11:06:38;;;;;;;15.37;10.70;;;;;;;;;;5056099;28;20242;-75
2022/03/05 11:09:07;;;;;;;15.43;11.30;;;;;;;;;;5064301;28;20210;-76
2022/03/05 11:11:38;;;;;;;14.47;11.27;;;;;;;;;;5065279;28;20199;-76
2022/03/05 11:14:06;;;;;;;13.40;10.83;;;;;;;;;;5057338;28;20665;-76
2022/03/05 11:16:35;;;;;;;12.83;10.73;;;;;;;;;;5059167;28;20242;-76
2022/03/05 11:19:04;;;;;;;13.73;10.83;;;;;;;;;;5037890;28;20258;-78
2022/03/05 11:21:34;;;;;;;15.90;10.70;;;;;;;;;;5053121;28;20214;-78
2022/03/05 11:24:02;;;;;;;13.83;10.13;;;;;;;;;;5061435;28;20195;-78
2022/03/05 11:26:31;;;;;;;14.20;10.73;;;;;;;;;;5053007;28;20283;-79
2022/03/05 11:29:21;;;;;;;14.37;11.50;;;;;;;;;;5068988;28;20264;-77
2022/03/05 11:31:49;;;;;;;14.87;10.57;;;;;;;;;;5053160;28;20203;-77
2022/03/05 11:34:19;;;;;;;13.30;10.43;;;;;;;;;;5066551;28;20219;-77
2022/03/05 11:36:51;;;;;;;14.37;12.00;;;;;;;;;;5048287;28;20243;-78
2022/03/05 11:39:20;;;;;;;14.87;11.33;;;;;;;;;;5063193;28;20249;-77
2022/03/05 11:41:53;;;;;;;15.00;11.17;;;;;;;;;;5043951;28;20206;-78
2022/03/05 11:44:22;;;;;;;14.17;11.43;;;;;;;;;;5052213;28;20196;-78
2022/03/05 11:46:51;;;;;;;15.07;11.87;;;;;;;;;;5044302;28;20230;-76
2022/03/05 11:49:19;;;;;;;15.33;11.57;;;;;;;;;;5044426;28;20207;-78
2022/03/05 11:51:56;;;;;;;14.30;11.17;;;;;;;;;;5037611;28;20204;-78
2022/03/05 11:54:24;;;;;;;14.70;11.57;;;;;;;;;;5046990;28;20295;-77
2022/03/05 11:57:11;;;;;;;14.23;11.47;;;;;;;;;;5036633;28;20230;-78
2022/03/05 11:59:40;;;;;;;15.37;11.70;;;;;;;;;;5034375;28;20204;-78
2022/03/05 12:02:08;;;;;;;14.70;11.17;;;;;;;;;;5035874;28;20211;-78
2022/03/05 12:04:46;;;;;;;16.43;12.40;;;;;;;;;;5048125;28;20234;-78
2022/03/05 12:07:18;;;;;;;15.67;11.93;;;;;;;;;;5055402;28;20248;-79
2022/03/05 12:09:54;;;;;;;15.43;11.73;;;;;;;;;;5042570;28;20215;-78
2022/03/05 12:12:22;;;;;;;14.83;11.33;;;;;;;;;;5035595;28;20202;-78
2022/03/05 12:15:10;;;;;;;15.40;11.83;;;;;;;;;;5043497;28;20269;-78
2022/03/05 12:17:48;;;;;;;14.83;11.57;;;;;;;;;;5047330;28;20261;-76
2022/03/05 12:20:18;;;;;;;16.63;12.13;;;;;;;;;;5055045;28;20192;-77
2022/03/05 12:22:55;;;;;;;15.63;11.80;;;;;;;;;;5054661;28;20219;-78
2022/03/05 12:25:24;;;;;;;15.83;12.07;;;;;;;;;;5045670;28;20238;-78
2022/03/05 12:27:53;;;;;;;15.17;11.67;;;;;;;;;;5054849;28;20576;-78
2022/03/05 12:30:23;;;;;;;17.30;12.30;;;;;;;;;;5055454;28;20198;-78
2022/03/05 12:32:52;;;;;;;16.10;11.80;;;;;;;;;;5054677;28;20213;-78
2022/03/05 12:35:22;;;;;;;15.93;11.17;;;;;;;;;;5040597;28;20251;-78
2022/03/05 12:37:52;;;;;;;14.13;11.63;;;;;;;;;;5034708;28;20230;-77
2022/03/05 12:40:20;;;;;;;16.17;12.43;;;;;;;;;;5052078;28;20207;-77
2022/03/05 12:42:49;;;;;;;14.10;10.93;;;;;;;;;;5054595;28;20203;-78
2022/03/05 12:45:19;;;;;;;16.00;11.97;;;;;;;;;;5034746;28;20250;-78
2022/03/05 12:47:48;;;;;;;14.77;11.30;;;;;;;;;;5034652;28;20285;-78
2022/03/05 12:50:24;;;;;;;16.00;11.73;;;;;;;;;;5034688;28;20192;-78
2022/03/05 12:52:58;;;;;;;15.03;11.13;;;;;;;;;;5033965;28;20187;-78
2022/03/05 12:55:28;;;;;;;12.87;10.50;;;;;;;;;;5034471;28;20215;-78
2022/03/05 12:58:10;;;;;;;14.30;10.50;;;;;;;;;;5034616;28;20223;-77
2022/03/05 13:00:39;;;;;;;15.70;11.17;;;;;;;;;;5034010;28;20215;-78
2022/03/05 13:03:11;;;;;;;15.10;11.47;;;;;;;;;;5034137;28;20295;-76
2022/03/05 13:05:40;;;;;;;16.30;11.77;;;;;;;;;;5050445;28;20199;-78
2022/03/05 13:08:14;;;;;;;14.73;11.27;;;;;;;;;;5034723;28;20199;-78
2022/03/05 13:10:42;;;;;;;15.33;11.63;;;;;;;;;;5034904;28;20238;-78
2022/03/05 13:13:11;;;;;;;13.90;10.57;;;;;;;;;;5060075;28;20737;-78
2022/03/05 13:15:40;;;;;;;16.13;11.23;;;;;;;;;;5071702;28;20213;-79
2022/03/05 13:18:10;;;;;;;15.03;11.30;;;;;;;;;;5070139;28;20207;-78
2022/03/05 13:20:38;;;;;;;13.97;10.67;;;;;;;;;;5052490;28;20261;-79
2022/03/05 13:23:07;;;;;;;13.10;10.87;;;;;;;;;;5054623;28;20277;-78
2022/03/05 13:25:44;;;;;;;14.80;10.70;;;;;;;;;;5043310;28;20202;-78
2022/03/05 13:28:15;;;;;;;12.67;10.10;;;;;;;;;;5053974;28;20211;-78
2022/03/05 13:30:44;;;;;;;13.90;10.17;;;;;;;;;;5036924;28;20262;-78
2022/03/05 13:33:13;;;;;;;13.10;10.53;;;;;;;;;;5033699;28;20208;-79
2022/03/05 13:35:42;;;;;;;15.83;11.30;;;;;;;;;;5049914;28;20223;-78
2022/03/05 13:38:27;;;;;;;15.20;11.20;;;;;;;;;;5035576;28;20208;-77
2022/03/05 13:40:57;;;;;;;14.17;10.40;;;;;;;;;;5034311;28;20234;-78
2022/03/05 13:43:26;;;;;;;14.90;10.90;;;;;;;;;;5034297;28;20641;-77
2022/03/05 13:45:58;;;;;;;14.27;10.43;;;;;;;;;;5033931;28;20200;-77
2022/03/05 13:48:27;;;;;;;13.80;10.27;;;;;;;;;;5045005;28;20204;-77
2022/03/05 13:50:56;;;;;;;14.90;11.27;;;;;;;;;;5037176;28;20258;-78
2022/03/05 13:53:24;;;;;;;12.83;10.27;;;;;;;;;;5041337;28;20650;-78
2022/03/05 13:56:04;;;;;;;14.07;10.43;;;;;;;;;;5033417;28;20232;-79
2022/03/05 13:58:33;;;;;;;13.27;10.27;;;;;;;;;;5051931;28;20236;-79
2022/03/05 14:01:01;;;;;;;13.53;10.40;;;;;;;;;;5053190;28;20797;-78
2022/03/05 14:03:30;;;;;;;13.93;11.03;;;;;;;;;;5042065;28;20226;-79
2022/03/05 14:05:58;;;;;;;15.20;10.70;;;;;;;;;;5036599;28;20207;-79
2022/03/05 14:08:28;;;;;;;14.70;10.53;;;;;;;;;;5033216;28;20211;-79
2022/03/05 14:10:56;;;;;;;13.03;10.00;;;;;;;;;;5033613;28;20610;-78
2022/03/05 14:13:26;;;;;;;13.57;10.03;;;;;;;;;;5049110;28;20658;-77
2022/03/05 14:15:55;;;;;;;11.63;9.70;;;;;;;;;;5023578;28;20235;-79
2022/03/05 14:18:24;;;;;;;13.73;9.93;;;;;;;;;;5046161;28;20658;-79
2022/03/05 14:20:53;;;;;;;12.40;9.80;;;;;;;;;;5053999;28;20207;-79
2022/03/05 14:23:22;;;;;;;12.17;9.23;;;;;;;;;;5053368;28;20596;-78
2022/03/05 14:25:52;;;;;;;13.70;9.20;;;;;;;;;;5037214;28;20245;-78
2022/03/05 14:28:22;;;;;;;14.07;9.93;;;;;;;;;;5034036;28;20208;-77
2022/03/05 14:30:52;;;;;;;12.30;9.17;;;;;;;;;;5046717;28;20206;-78
2022/03/05 14:33:20;;;;;;;12.97;9.17;;;;;;;;;;5032395;28;20252;-78
2022/03/05 14:35:50;;;;;;;12.10;9.23;;;;;;;;;;5031983;28;20232;-78
2022/03/05 14:38:18;;;;;;;12.00;9.50;;;;;;;;;;5034495;28;20215;-79